sensor_id;sensor_type;location;lat;lon;timestamp;temperature;humidity
28524;DHT22;15734;50.904;6.922;2022-08-01T00:00:11;21.80;99.90
28524;DHT22;15734;50.904;6.922;2022-08-01T00:02:37;21.80;99.90
28524;DHT22;15734;50.904;6.922;2022-08-01T00:05:07;21.80;99.90
28524;DHT22;15734;50.904;6.922;2022-08-01T00:07:34;21.80;99.90
28524;DHT22;15734;50.904;6.922;2022-08-01T00:10:00;21.80;99.90
28524;DHT22;15734;50.904;6.922;2022-08-01T00:12:26;21.80;99.90
28524;DHT22;15734;50.904;6.922;2022-08-01T00:14:51;21.80;99.90
28524;DHT22;15734;50.904;6.922;2022-08-01T00:17:17;21.80;99.90
28524;DHT22;15734;50.904;6.922;2022-08-01T00:19:42;21.70;99.90
28524;DHT22;15734;50.904;6.922;2022-08-01T00:22:08;21.70;99.90
28524;DHT22;15734;50.904;6.922;2022-08-01T00:24:33;21.70;99.90
28524;DHT22;15734;50.904;6.922;2022-08-01T00:26:59;21.70;99.90
28524;DHT22;15734;50.904;6.922;2022-08-01T00:29:25;21.70;99.90
28524;DHT22;15734;50.904;6.922;2022-08-01T00:31:50;21.70;99.90
28524;DHT22;15734;50.904;6.922;2022-08-01T00:34:16;21.70;99.90
28524;DHT22;15734;50.904;6.922;2022-08-01T00:36:42;21.70;99.90
28524;DHT22;15734;50.904;6.922;2022-08-01T00:39:08;21.70;99.90
28524;DHT22;15734;50.904;6.922;2022-08-01T00:41:33;21.70;99.90
28524;DHT22;15734;50.904;6.922;2022-08-01T00:44:03;21.70;99.90
28524;DHT22;15734;50.904;6.922;2022-08-01T00:46:29;21.70;99.90
28524;DHT22;15734;50.904;6.922;2022-08-01T00:48:55;21.70;99.90
28524;DHT22;15734;50.904;6.922;2022-08-01T00:51:21;21.70;99.90
28524;DHT22;15734;50.904;6.922;2022-08-01T00:53:47;21.70;99.90
28524;DHT22;15734;50.904;6.922;2022-08-01T00:56:13;21.60;99.90
28524;DHT22;15734;50.904;6.922;2022-08-01T00:58:39;21.50;99.90
28524;DHT22;15734;50.904;6.922;2022-08-01T01:01:04;21.50;99.90
28524;DHT22;15734;50.904;6.922;2022-08-01T01:03:30;21.50;99.90
28524;DHT22;15734;50.904;6.922;2022-08-01T01:08:46;21.30;99.90
28524;DHT22;15734;50.904;6.922;2022-08-01T01:11:28;21.30;99.90
28524;DHT22;15734;50.904;6.922;2022-08-01T01:14:13;21.20;99.90
28524;DHT22;15734;50.904;6.922;2022-08-01T01:16:42;21.20;99.90
28524;DHT22;15734;50.904;6.922;2022-08-01T01:19:15;21.10;99.90
28524;DHT22;15734;50.904;6.922;2022-08-01T01:27:41;20.90;99.90
28524;DHT22;15734;50.904;6.922;2022-08-01T01:30:08;20.90;99.90
28524;DHT22;15734;50.904;6.922;2022-08-01T01:32:46;20.90;99.90
28524;DHT22;15734;50.904;6.922;2022-08-01T01:35:17;20.90;99.90
28524;DHT22;15734;50.904;6.922;2022-08-01T01:37:48;20.80;99.90
28524;DHT22;15734;50.904;6.922;2022-08-01T01:40:15;20.70;99.90
28524;DHT22;15734;50.904;6.922;2022-08-01T01:42:42;20.70;99.90
28524;DHT22;15734;50.904;6.922;2022-08-01T01:45:08;20.70;99.90
28524;DHT22;15734;50.904;6.922;2022-08-01T01:47:34;20.70;99.90
28524;DHT22;15734;50.904;6.922;2022-08-01T01:50:03;20.80;99.90
28524;DHT22;15734;50.904;6.922;2022-08-01T01:52:29;20.80;99.90
28524;DHT22;15734;50.904;6.922;2022-08-01T01:54:56;20.70;99.90
28524;DHT22;15734;50.904;6.922;2022-08-01T01:57:24;20.80;99.90
28524;DHT22;15734;50.904;6.922;2022-08-01T01:59:51;20.70;99.90
28524;DHT22;15734;50.904;6.922;2022-08-01T02:02:18;20.70;99.90
28524;DHT22;15734;50.904;6.922;2022-08-01T02:04:46;20.80;99.90
28524;DHT22;15734;50.904;6.922;2022-08-01T02:07:14;20.80;99.90
28524;DHT22;15734;50.904;6.922;2022-08-01T02:09:42;20.80;99.90
28524;DHT22;15734;50.904;6.922;2022-08-01T02:12:10;20.80;99.90
28524;DHT22;15734;50.904;6.922;2022-08-01T02:14:37;20.70;99.90
28524;DHT22;15734;50.904;6.922;2022-08-01T02:17:05;20.70;99.90
28524;DHT22;15734;50.904;6.922;2022-08-01T02:19:32;20.60;99.90
28524;DHT22;15734;50.904;6.922;2022-08-01T02:22:06;20.70;99.90
28524;DHT22;15734;50.904;6.922;2022-08-01T02:24:43;20.60;99.90
28524;DHT22;15734;50.904;6.922;2022-08-01T02:27:15;20.60;99.90
28524;DHT22;15734;50.904;6.922;2022-08-01T02:29:58;20.60;99.90
28524;DHT22;15734;50.904;6.922;2022-08-01T02:32:27;20.60;99.90
28524;DHT22;15734;50.904;6.922;2022-08-01T02:34:57;20.60;99.90
28524;DHT22;15734;50.904;6.922;2022-08-01T02:37:26;20.60;99.90
28524;DHT22;15734;50.904;6.922;2022-08-01T02:39:54;20.50;99.90
28524;DHT22;15734;50.904;6.922;2022-08-01T02:42:22;20.60;99.90
28524;DHT22;15734;50.904;6.922;2022-08-01T02:44:49;20.60;99.90
28524;DHT22;15734;50.904;6.922;2022-08-01T02:47:19;20.60;99.90
28524;DHT22;15734;50.904;6.922;2022-08-01T02:49:47;20.60;99.90
28524;DHT22;15734;50.904;6.922;2022-08-01T02:52:16;20.70;99.90
28524;DHT22;15734;50.904;6.922;2022-08-01T02:54:44;20.60;99.90
28524;DHT22;15734;50.904;6.922;2022-08-01T02:57:11;20.60;99.90
28524;DHT22;15734;50.904;6.922;2022-08-01T02:59:39;20.70;99.90
28524;DHT22;15734;50.904;6.922;2022-08-01T03:02:05;20.60;99.90
28524;DHT22;15734;50.904;6.922;2022-08-01T03:04:37;20.60;99.90
28524;DHT22;15734;50.904;6.922;2022-08-01T03:07:06;20.60;99.90
28524;DHT22;15734;50.904;6.922;2022-08-01T03:09:36;20.60;99.90
28524;DHT22;15734;50.904;6.922;2022-08-01T03:12:05;20.60;99.90
28524;DHT22;15734;50.904;6.922;2022-08-01T03:14:35;20.60;99.90
28524;DHT22;15734;50.904;6.922;2022-08-01T03:17:02;20.50;99.90
28524;DHT22;15734;50.904;6.922;2022-08-01T03:19:30;20.60;99.90
28524;DHT22;15734;50.904;6.922;2022-08-01T03:21:57;20.50;99.90
28524;DHT22;15734;50.904;6.922;2022-08-01T03:24:24;20.50;99.90
28524;DHT22;15734;50.904;6.922;2022-08-01T03:26:51;20.60;99.90
28524;DHT22;15734;50.904;6.922;2022-08-01T03:29:21;20.50;99.90
28524;DHT22;15734;50.904;6.922;2022-08-01T03:31:48;20.50;99.90
28524;DHT22;15734;50.904;6.922;2022-08-01T03:34:14;20.50;99.90
28524;DHT22;15734;50.904;6.922;2022-08-01T03:37:11;20.50;99.90
28524;DHT22;15734;50.904;6.922;2022-08-01T03:40:04;20.50;99.90
28524;DHT22;15734;50.904;6.922;2022-08-01T03:42:35;20.40;99.90
28524;DHT22;15734;50.904;6.922;2022-08-01T03:45:05;20.50;99.90
28524;DHT22;15734;50.904;6.922;2022-08-01T03:47:33;20.40;99.90
28524;DHT22;15734;50.904;6.922;2022-08-01T03:50:04;20.50;99.90
28524;DHT22;15734;50.904;6.922;2022-08-01T03:52:32;20.40;99.90
28524;DHT22;15734;50.904;6.922;2022-08-01T03:55:03;20.50;99.90
28524;DHT22;15734;50.904;6.922;2022-08-01T03:57:30;20.50;99.90
28524;DHT22;15734;50.904;6.922;2022-08-01T03:59:58;20.50;99.90
28524;DHT22;15734;50.904;6.922;2022-08-01T04:02:26;20.50;99.90
28524;DHT22;15734;50.904;6.922;2022-08-01T04:04:52;20.50;99.90
28524;DHT22;15734;50.904;6.922;2022-08-01T04:07:29;20.50;99.90
28524;DHT22;15734;50.904;6.922;2022-08-01T04:09:55;20.40;99.90
28524;DHT22;15734;50.904;6.922;2022-08-01T04:12:21;20.50;99.90
28524;DHT22;15734;50.904;6.922;2022-08-01T04:14:47;20.50;99.90
28524;DHT22;15734;50.904;6.922;2022-08-01T04:17:14;20.50;99.90
28524;DHT22;15734;50.904;6.922;2022-08-01T04:19:40;20.50;99.90
28524;DHT22;15734;50.904;6.922;2022-08-01T04:22:06;20.40;99.90
28524;DHT22;15734;50.904;6.922;2022-08-01T04:24:34;20.50;99.90
28524;DHT22;15734;50.904;6.922;2022-08-01T04:27:02;20.50;99.90
28524;DHT22;15734;50.904;6.922;2022-08-01T04:29:30;20.50;99.90
28524;DHT22;15734;50.904;6.922;2022-08-01T04:31:56;20.50;99.90
28524;DHT22;15734;50.904;6.922;2022-08-01T04:34:26;20.50;99.90
28524;DHT22;15734;50.904;6.922;2022-08-01T04:36:54;20.40;99.90
28524;DHT22;15734;50.904;6.922;2022-08-01T04:39:24;20.50;99.90
28524;DHT22;15734;50.904;6.922;2022-08-01T04:41:53;20.50;99.90
28524;DHT22;15734;50.904;6.922;2022-08-01T04:44:22;20.50;99.90
28524;DHT22;15734;50.904;6.922;2022-08-01T04:46:48;20.50;99.90
28524;DHT22;15734;50.904;6.922;2022-08-01T04:49:15;20.50;99.90
28524;DHT22;15734;50.904;6.922;2022-08-01T04:51:54;20.50;99.90
28524;DHT22;15734;50.904;6.922;2022-08-01T04:54:26;20.50;99.90
28524;DHT22;15734;50.904;6.922;2022-08-01T04:56:53;20.50;99.90
28524;DHT22;15734;50.904;6.922;2022-08-01T04:59:19;20.50;99.90
28524;DHT22;15734;50.904;6.922;2022-08-01T05:02:04;20.50;99.90
28524;DHT22;15734;50.904;6.922;2022-08-01T05:04:29;20.50;99.90
28524;DHT22;15734;50.904;6.922;2022-08-01T05:06:55;20.50;99.90
28524;DHT22;15734;50.904;6.922;2022-08-01T05:09:20;20.50;99.90
28524;DHT22;15734;50.904;6.922;2022-08-01T05:11:46;20.60;99.90
28524;DHT22;15734;50.904;6.922;2022-08-01T05:14:11;20.50;99.90
28524;DHT22;15734;50.904;6.922;2022-08-01T05:16:37;20.50;99.90
28524;DHT22;15734;50.904;6.922;2022-08-01T05:19:02;20.60;99.90
28524;DHT22;15734;50.904;6.922;2022-08-01T05:21:28;20.60;99.90
28524;DHT22;15734;50.904;6.922;2022-08-01T05:23:53;20.60;99.90
28524;DHT22;15734;50.904;6.922;2022-08-01T05:26:19;20.60;99.90
28524;DHT22;15734;50.904;6.922;2022-08-01T05:28:45;20.60;99.90
28524;DHT22;15734;50.904;6.922;2022-08-01T05:31:11;20.50;99.90
28524;DHT22;15734;50.904;6.922;2022-08-01T05:33:36;20.60;99.90
28524;DHT22;15734;50.904;6.922;2022-08-01T05:36:02;20.60;99.90
28524;DHT22;15734;50.904;6.922;2022-08-01T05:38:28;20.60;99.90
28524;DHT22;15734;50.904;6.922;2022-08-01T05:40:53;20.60;99.90
28524;DHT22;15734;50.904;6.922;2022-08-01T05:43:19;20.60;99.90
28524;DHT22;15734;50.904;6.922;2022-08-01T05:45:45;20.70;99.90
28524;DHT22;15734;50.904;6.922;2022-08-01T05:48:11;20.70;99.90
28524;DHT22;15734;50.904;6.922;2022-08-01T05:50:36;20.70;99.90
28524;DHT22;15734;50.904;6.922;2022-08-01T05:53:02;20.70;99.90
28524;DHT22;15734;50.904;6.922;2022-08-01T05:55:28;20.70;99.90
28524;DHT22;15734;50.904;6.922;2022-08-01T05:57:53;20.80;99.90
28524;DHT22;15734;50.904;6.922;2022-08-01T06:00:19;20.80;99.90
28524;DHT22;15734;50.904;6.922;2022-08-01T06:02:44;20.70;99.90
28524;DHT22;15734;50.904;6.922;2022-08-01T06:05:10;20.60;99.90
28524;DHT22;15734;50.904;6.922;2022-08-01T06:07:36;20.60;99.90
28524;DHT22;15734;50.904;6.922;2022-08-01T06:10:02;20.60;99.90
28524;DHT22;15734;50.904;6.922;2022-08-01T06:12:28;20.60;99.90
28524;DHT22;15734;50.904;6.922;2022-08-01T06:14:53;20.60;99.90
28524;DHT22;15734;50.904;6.922;2022-08-01T06:17:19;20.70;99.90
28524;DHT22;15734;50.904;6.922;2022-08-01T06:19:44;20.80;99.90
28524;DHT22;15734;50.904;6.922;2022-08-01T06:22:10;20.80;99.90
28524;DHT22;15734;50.904;6.922;2022-08-01T06:24:35;20.90;99.90
28524;DHT22;15734;50.904;6.922;2022-08-01T06:27:02;21.00;99.90
28524;DHT22;15734;50.904;6.922;2022-08-01T06:29:30;21.10;99.90
28524;DHT22;15734;50.904;6.922;2022-08-01T06:31:56;21.10;99.90
28524;DHT22;15734;50.904;6.922;2022-08-01T06:34:21;21.10;99.90
28524;DHT22;15734;50.904;6.922;2022-08-01T06:36:48;21.10;99.90
28524;DHT22;15734;50.904;6.922;2022-08-01T06:39:13;21.20;99.90
28524;DHT22;15734;50.904;6.922;2022-08-01T06:41:39;21.30;99.90
28524;DHT22;15734;50.904;6.922;2022-08-01T06:44:07;21.40;99.90
28524;DHT22;15734;50.904;6.922;2022-08-01T06:46:32;21.40;99.90
28524;DHT22;15734;50.904;6.922;2022-08-01T06:48:58;21.50;99.90
28524;DHT22;15734;50.904;6.922;2022-08-01T06:51:25;21.50;99.90
28524;DHT22;15734;50.904;6.922;2022-08-01T06:53:51;21.50;99.90
28524;DHT22;15734;50.904;6.922;2022-08-01T06:56:16;21.40;99.90
28524;DHT22;15734;50.904;6.922;2022-08-01T06:58:42;21.40;99.90
28524;DHT22;15734;50.904;6.922;2022-08-01T07:01:07;21.50;99.90
28524;DHT22;15734;50.904;6.922;2022-08-01T07:03:36;21.50;99.90
28524;DHT22;15734;50.904;6.922;2022-08-01T07:06:02;21.50;99.90
28524;DHT22;15734;50.904;6.922;2022-08-01T07:08:28;21.60;99.90
28524;DHT22;15734;50.904;6.922;2022-08-01T07:10:54;21.60;99.90
28524;DHT22;15734;50.904;6.922;2022-08-01T07:13:21;21.70;99.90
28524;DHT22;15734;50.904;6.922;2022-08-01T07:15:50;21.70;99.90
28524;DHT22;15734;50.904;6.922;2022-08-01T07:18:16;21.70;99.90
28524;DHT22;15734;50.904;6.922;2022-08-01T07:20:41;21.70;99.90
28524;DHT22;15734;50.904;6.922;2022-08-01T07:23:07;21.60;99.90
28524;DHT22;15734;50.904;6.922;2022-08-01T07:25:33;21.60;99.90
28524;DHT22;15734;50.904;6.922;2022-08-01T07:27:58;21.50;99.90
28524;DHT22;15734;50.904;6.922;2022-08-01T07:30:24;21.60;99.90
28524;DHT22;15734;50.904;6.922;2022-08-01T07:32:49;21.60;99.90
28524;DHT22;15734;50.904;6.922;2022-08-01T07:35:15;21.70;99.90
28524;DHT22;15734;50.904;6.922;2022-08-01T07:37:40;21.80;99.90
28524;DHT22;15734;50.904;6.922;2022-08-01T07:40:06;21.80;99.90
28524;DHT22;15734;50.904;6.922;2022-08-01T07:42:32;21.90;99.90
28524;DHT22;15734;50.904;6.922;2022-08-01T07:44:58;21.90;99.90
28524;DHT22;15734;50.904;6.922;2022-08-01T07:47:27;21.90;99.90
28524;DHT22;15734;50.904;6.922;2022-08-01T07:49:59;21.90;99.90
28524;DHT22;15734;50.904;6.922;2022-08-01T07:52:25;22.00;99.90
28524;DHT22;15734;50.904;6.922;2022-08-01T07:54:52;22.00;99.90
28524;DHT22;15734;50.904;6.922;2022-08-01T07:57:18;21.90;99.90
28524;DHT22;15734;50.904;6.922;2022-08-01T07:59:43;21.90;99.90
28524;DHT22;15734;50.904;6.922;2022-08-01T08:02:09;21.90;99.90
28524;DHT22;15734;50.904;6.922;2022-08-01T08:04:34;22.00;99.90
28524;DHT22;15734;50.904;6.922;2022-08-01T08:07:00;22.10;99.90
28524;DHT22;15734;50.904;6.922;2022-08-01T08:09:26;22.20;99.90
28524;DHT22;15734;50.904;6.922;2022-08-01T08:11:51;22.20;99.90
28524;DHT22;15734;50.904;6.922;2022-08-01T08:14:17;22.30;99.90
28524;DHT22;15734;50.904;6.922;2022-08-01T08:16:43;22.40;99.90
28524;DHT22;15734;50.904;6.922;2022-08-01T08:19:09;22.30;99.90
28524;DHT22;15734;50.904;6.922;2022-08-01T08:21:34;22.30;99.90
28524;DHT22;15734;50.904;6.922;2022-08-01T08:24:01;22.30;99.90
28524;DHT22;15734;50.904;6.922;2022-08-01T08:26:49;22.30;99.90
28524;DHT22;15734;50.904;6.922;2022-08-01T08:29:16;22.50;99.90
28524;DHT22;15734;50.904;6.922;2022-08-01T08:31:42;22.70;99.90
28524;DHT22;15734;50.904;6.922;2022-08-01T08:34:08;22.70;99.90
28524;DHT22;15734;50.904;6.922;2022-08-01T08:36:33;22.60;99.90
28524;DHT22;15734;50.904;6.922;2022-08-01T08:38:59;22.70;99.90
28524;DHT22;15734;50.904;6.922;2022-08-01T08:41:32;22.80;99.90
28524;DHT22;15734;50.904;6.922;2022-08-01T08:43:58;22.80;99.90
28524;DHT22;15734;50.904;6.922;2022-08-01T08:46:26;22.90;99.90
28524;DHT22;15734;50.904;6.922;2022-08-01T08:48:53;22.90;99.90
28524;DHT22;15734;50.904;6.922;2022-08-01T08:51:19;23.00;99.90
28524;DHT22;15734;50.904;6.922;2022-08-01T08:53:46;23.00;99.90
28524;DHT22;15734;50.904;6.922;2022-08-01T08:56:13;22.70;99.90
28524;DHT22;15734;50.904;6.922;2022-08-01T08:58:40;22.80;99.90
28524;DHT22;15734;50.904;6.922;2022-08-01T09:01:07;22.80;99.90
28524;DHT22;15734;50.904;6.922;2022-08-01T09:03:34;22.80;99.90
28524;DHT22;15734;50.904;6.922;2022-08-01T09:06:00;22.90;99.90
28524;DHT22;15734;50.904;6.922;2022-08-01T09:08:25;22.90;99.90
28524;DHT22;15734;50.904;6.922;2022-08-01T09:10:51;22.90;99.90
28524;DHT22;15734;50.904;6.922;2022-08-01T09:13:17;22.90;99.90
28524;DHT22;15734;50.904;6.922;2022-08-01T09:15:48;22.90;99.90
28524;DHT22;15734;50.904;6.922;2022-08-01T09:18:34;23.00;99.90
28524;DHT22;15734;50.904;6.922;2022-08-01T09:23:39;23.30;99.90
28524;DHT22;15734;50.904;6.922;2022-08-01T09:26:08;23.30;99.90
28524;DHT22;15734;50.904;6.922;2022-08-01T09:28:34;23.30;99.90
28524;DHT22;15734;50.904;6.922;2022-08-01T09:31:06;23.30;99.90
28524;DHT22;15734;50.904;6.922;2022-08-01T09:33:58;23.40;99.90
28524;DHT22;15734;50.904;6.922;2022-08-01T09:36:27;23.40;99.90
28524;DHT22;15734;50.904;6.922;2022-08-01T09:39:12;23.30;99.90
28524;DHT22;15734;50.904;6.922;2022-08-01T09:41:38;23.20;99.90
28524;DHT22;15734;50.904;6.922;2022-08-01T09:44:04;23.00;99.90
28524;DHT22;15734;50.904;6.922;2022-08-01T09:46:30;23.00;99.90
28524;DHT22;15734;50.904;6.922;2022-08-01T09:48:59;23.10;99.90
28524;DHT22;15734;50.904;6.922;2022-08-01T09:51:35;23.10;99.90
28524;DHT22;15734;50.904;6.922;2022-08-01T09:54:05;23.20;99.90
28524;DHT22;15734;50.904;6.922;2022-08-01T09:56:38;23.40;99.90
28524;DHT22;15734;50.904;6.922;2022-08-01T09:59:04;23.70;99.90
28524;DHT22;15734;50.904;6.922;2022-08-01T10:01:43;23.90;99.90
28524;DHT22;15734;50.904;6.922;2022-08-01T10:06:37;24.00;99.90
28524;DHT22;15734;50.904;6.922;2022-08-01T10:09:03;23.90;99.90
28524;DHT22;15734;50.904;6.922;2022-08-01T10:11:28;24.00;99.90
28524;DHT22;15734;50.904;6.922;2022-08-01T10:13:56;24.10;99.90
28524;DHT22;15734;50.904;6.922;2022-08-01T10:16:26;24.20;99.90
28524;DHT22;15734;50.904;6.922;2022-08-01T10:18:53;24.50;99.90
28524;DHT22;15734;50.904;6.922;2022-08-01T10:21:20;24.40;99.90
28524;DHT22;15734;50.904;6.922;2022-08-01T10:23:46;24.40;99.90
28524;DHT22;15734;50.904;6.922;2022-08-01T10:26:12;24.50;99.90
28524;DHT22;15734;50.904;6.922;2022-08-01T10:28:39;24.60;99.90
28524;DHT22;15734;50.904;6.922;2022-08-01T10:31:07;24.50;99.90
28524;DHT22;15734;50.904;6.922;2022-08-01T10:33:33;24.50;99.90
28524;DHT22;15734;50.904;6.922;2022-08-01T10:36:01;24.40;99.90
28524;DHT22;15734;50.904;6.922;2022-08-01T10:38:27;24.30;99.90
28524;DHT22;15734;50.904;6.922;2022-08-01T10:40:53;24.30;99.90
28524;DHT22;15734;50.904;6.922;2022-08-01T10:43:20;24.40;99.90
28524;DHT22;15734;50.904;6.922;2022-08-01T10:45:45;24.80;99.90
28524;DHT22;15734;50.904;6.922;2022-08-01T10:50:57;24.60;99.90
28524;DHT22;15734;50.904;6.922;2022-08-01T10:53:25;24.50;99.90
28524;DHT22;15734;50.904;6.922;2022-08-01T10:58:43;24.30;99.90
28524;DHT22;15734;50.904;6.922;2022-08-01T11:01:22;24.20;99.90
28524;DHT22;15734;50.904;6.922;2022-08-01T11:04:14;24.10;99.90
28524;DHT22;15734;50.904;6.922;2022-08-01T11:09:30;24.40;99.90
28524;DHT22;15734;50.904;6.922;2022-08-01T11:11:57;24.80;99.90
28524;DHT22;15734;50.904;6.922;2022-08-01T11:14:23;25.40;99.90
28524;DHT22;15734;50.904;6.922;2022-08-01T11:16:49;25.50;99.90
28524;DHT22;15734;50.904;6.922;2022-08-01T11:19:14;25.50;99.90
28524;DHT22;15734;50.904;6.922;2022-08-01T11:27:21;25.10;99.90
28524;DHT22;15734;50.904;6.922;2022-08-01T11:32:47;25.60;99.90
28524;DHT22;15734;50.904;6.922;2022-08-01T11:35:13;25.90;99.90
28524;DHT22;15734;50.904;6.922;2022-08-01T11:37:39;25.90;99.90
28524;DHT22;15734;50.904;6.922;2022-08-01T11:40:18;26.20;99.90
28524;DHT22;15734;50.904;6.922;2022-08-01T11:42:43;26.50;99.90
28524;DHT22;15734;50.904;6.922;2022-08-01T11:45:09;26.70;99.90
28524;DHT22;15734;50.904;6.922;2022-08-01T11:47:51;26.50;99.90
28524;DHT22;15734;50.904;6.922;2022-08-01T11:50:33;26.20;99.90
28524;DHT22;15734;50.904;6.922;2022-08-01T11:53:00;25.90;99.90
28524;DHT22;15734;50.904;6.922;2022-08-01T11:55:27;25.70;99.90
28524;DHT22;15734;50.904;6.922;2022-08-01T11:58:05;25.50;99.90
28524;DHT22;15734;50.904;6.922;2022-08-01T12:00:32;25.40;99.90
28524;DHT22;15734;50.904;6.922;2022-08-01T12:03:03;25.50;99.90
28524;DHT22;15734;50.904;6.922;2022-08-01T12:05:30;25.50;99.90
28524;DHT22;15734;50.904;6.922;2022-08-01T12:07:57;25.60;99.90
28524;DHT22;15734;50.904;6.922;2022-08-01T12:10:25;26.00;99.90
28524;DHT22;15734;50.904;6.922;2022-08-01T12:13:00;26.50;99.90
28524;DHT22;15734;50.904;6.922;2022-08-01T12:15:33;26.60;99.90
28524;DHT22;15734;50.904;6.922;2022-08-01T12:18:02;26.60;99.90
28524;DHT22;15734;50.904;6.922;2022-08-01T12:20:32;26.40;99.90
28524;DHT22;15734;50.904;6.922;2022-08-01T12:23:04;26.20;99.90
28524;DHT22;15734;50.904;6.922;2022-08-01T12:25:33;26.40;99.90
28524;DHT22;15734;50.904;6.922;2022-08-01T12:28:02;26.40;99.90
28524;DHT22;15734;50.904;6.922;2022-08-01T12:30:29;26.20;99.90
28524;DHT22;15734;50.904;6.922;2022-08-01T12:32:56;25.70;99.90
28524;DHT22;15734;50.904;6.922;2022-08-01T12:35:26;25.50;99.90
28524;DHT22;15734;50.904;6.922;2022-08-01T12:37:53;25.30;99.90
28524;DHT22;15734;50.904;6.922;2022-08-01T12:40:25;25.20;99.90
28524;DHT22;15734;50.904;6.922;2022-08-01T12:42:59;25.30;99.90
28524;DHT22;15734;50.904;6.922;2022-08-01T12:45:37;25.20;99.90
28524;DHT22;15734;50.904;6.922;2022-08-01T12:48:09;25.30;99.90
28524;DHT22;15734;50.904;6.922;2022-08-01T12:50:37;25.50;99.90
28524;DHT22;15734;50.904;6.922;2022-08-01T12:53:04;25.60;99.90
28524;DHT22;15734;50.904;6.922;2022-08-01T12:55:29;25.60;99.90
28524;DHT22;15734;50.904;6.922;2022-08-01T12:58:05;25.50;99.90
28524;DHT22;15734;50.904;6.922;2022-08-01T13:00:31;25.40;99.90
28524;DHT22;15734;50.904;6.922;2022-08-01T13:03:09;25.40;99.90
28524;DHT22;15734;50.904;6.922;2022-08-01T13:05:43;25.60;99.90
28524;DHT22;15734;50.904;6.922;2022-08-01T13:08:12;25.90;99.90
28524;DHT22;15734;50.904;6.922;2022-08-01T13:10:38;26.00;99.90
28524;DHT22;15734;50.904;6.922;2022-08-01T13:13:04;25.80;99.90
28524;DHT22;15734;50.904;6.922;2022-08-01T13:15:34;25.80;99.90
28524;DHT22;15734;50.904;6.922;2022-08-01T13:20:46;25.60;99.90
28524;DHT22;15734;50.904;6.922;2022-08-01T13:23:19;25.70;99.90
28524;DHT22;15734;50.904;6.922;2022-08-01T13:25:53;25.60;99.90
28524;DHT22;15734;50.904;6.922;2022-08-01T13:28:23;25.70;99.90
28524;DHT22;15734;50.904;6.922;2022-08-01T13:31:15;25.80;99.90
28524;DHT22;15734;50.904;6.922;2022-08-01T13:33:46;25.80;99.90
28524;DHT22;15734;50.904;6.922;2022-08-01T13:36:13;26.00;99.90
28524;DHT22;15734;50.904;6.922;2022-08-01T13:38:40;26.00;99.90
28524;DHT22;15734;50.904;6.922;2022-08-01T13:41:24;26.00;99.90
28524;DHT22;15734;50.904;6.922;2022-08-01T13:43:50;26.00;99.90
28524;DHT22;15734;50.904;6.922;2022-08-01T13:46:16;26.10;99.90
28524;DHT22;15734;50.904;6.922;2022-08-01T13:48:41;26.10;99.90
28524;DHT22;15734;50.904;6.922;2022-08-01T13:51:07;25.90;99.90
28524;DHT22;15734;50.904;6.922;2022-08-01T13:53:33;25.80;99.90
28524;DHT22;15734;50.904;6.922;2022-08-01T13:55:58;25.70;99.90
28524;DHT22;15734;50.904;6.922;2022-08-01T13:58:24;25.60;99.90
28524;DHT22;15734;50.904;6.922;2022-08-01T14:00:49;25.50;99.90
28524;DHT22;15734;50.904;6.922;2022-08-01T14:03:15;25.50;99.90
28524;DHT22;15734;50.904;6.922;2022-08-01T14:05:42;25.50;99.90
28524;DHT22;15734;50.904;6.922;2022-08-01T14:08:08;25.50;99.90
28524;DHT22;15734;50.904;6.922;2022-08-01T14:10:34;25.60;99.90
28524;DHT22;15734;50.904;6.922;2022-08-01T14:12:59;25.70;99.90
28524;DHT22;15734;50.904;6.922;2022-08-01T14:15:25;25.80;99.90
28524;DHT22;15734;50.904;6.922;2022-08-01T14:17:51;25.80;99.90
28524;DHT22;15734;50.904;6.922;2022-08-01T14:20:16;26.00;99.90
28524;DHT22;15734;50.904;6.922;2022-08-01T14:22:45;26.20;99.90
28524;DHT22;15734;50.904;6.922;2022-08-01T14:25:11;26.40;99.90
28524;DHT22;15734;50.904;6.922;2022-08-01T14:27:36;26.70;99.90
28524;DHT22;15734;50.904;6.922;2022-08-01T14:30:03;26.90;99.90
28524;DHT22;15734;50.904;6.922;2022-08-01T14:32:29;27.00;99.90
28524;DHT22;15734;50.904;6.922;2022-08-01T14:34:55;26.70;99.90
28524;DHT22;15734;50.904;6.922;2022-08-01T14:37:22;26.60;99.90
28524;DHT22;15734;50.904;6.922;2022-08-01T14:39:48;26.50;99.90
28524;DHT22;15734;50.904;6.922;2022-08-01T14:42:14;26.40;99.90
28524;DHT22;15734;50.904;6.922;2022-08-01T14:44:39;26.30;99.90
28524;DHT22;15734;50.904;6.922;2022-08-01T14:47:05;26.40;99.90
28524;DHT22;15734;50.904;6.922;2022-08-01T14:49:30;26.50;99.90
28524;DHT22;15734;50.904;6.922;2022-08-01T14:51:56;26.60;99.90
28524;DHT22;15734;50.904;6.922;2022-08-01T14:54:21;26.70;99.90
28524;DHT22;15734;50.904;6.922;2022-08-01T14:56:47;26.60;99.90
28524;DHT22;15734;50.904;6.922;2022-08-01T14:59:12;26.40;99.90
28524;DHT22;15734;50.904;6.922;2022-08-01T15:01:38;26.30;99.90
28524;DHT22;15734;50.904;6.922;2022-08-01T15:04:03;26.30;99.90
28524;DHT22;15734;50.904;6.922;2022-08-01T15:06:29;26.40;99.90
28524;DHT22;15734;50.904;6.922;2022-08-01T15:08:54;26.40;99.90
28524;DHT22;15734;50.904;6.922;2022-08-01T15:11:20;26.40;99.90
28524;DHT22;15734;50.904;6.922;2022-08-01T15:13:46;26.40;99.90
28524;DHT22;15734;50.904;6.922;2022-08-01T15:16:31;26.40;99.90
28524;DHT22;15734;50.904;6.922;2022-08-01T15:18:57;26.40;99.90
28524;DHT22;15734;50.904;6.922;2022-08-01T15:21:22;26.40;99.90
28524;DHT22;15734;50.904;6.922;2022-08-01T15:23:48;26.40;99.90
28524;DHT22;15734;50.904;6.922;2022-08-01T15:26:13;26.40;99.90
28524;DHT22;15734;50.904;6.922;2022-08-01T15:28:39;26.40;99.90
28524;DHT22;15734;50.904;6.922;2022-08-01T15:31:04;26.40;99.90
28524;DHT22;15734;50.904;6.922;2022-08-01T15:33:30;26.30;99.90
28524;DHT22;15734;50.904;6.922;2022-08-01T15:35:55;26.40;99.90
28524;DHT22;15734;50.904;6.922;2022-08-01T15:38:21;26.50;99.90
28524;DHT22;15734;50.904;6.922;2022-08-01T15:40:47;26.40;99.90
28524;DHT22;15734;50.904;6.922;2022-08-01T15:43:12;26.30;99.90
28524;DHT22;15734;50.904;6.922;2022-08-01T15:45:38;26.10;99.90
28524;DHT22;15734;50.904;6.922;2022-08-01T15:48:04;26.00;99.90
28524;DHT22;15734;50.904;6.922;2022-08-01T15:50:29;25.90;99.90
28524;DHT22;15734;50.904;6.922;2022-08-01T15:52:55;25.80;99.90
28524;DHT22;15734;50.904;6.922;2022-08-01T15:55:20;25.80;99.90
28524;DHT22;15734;50.904;6.922;2022-08-01T15:57:46;25.70;99.90
28524;DHT22;15734;50.904;6.922;2022-08-01T16:00:12;25.60;99.90
28524;DHT22;15734;50.904;6.922;2022-08-01T16:02:40;25.60;99.90
28524;DHT22;15734;50.904;6.922;2022-08-01T16:05:06;25.60;99.90
28524;DHT22;15734;50.904;6.922;2022-08-01T16:07:32;25.50;99.90